Weather History for Wharton, TX

Change the Weather History Date:

Thursday, March 20, 2014

  Actual Average (KPSX) Record (KPSX)
Temperature  
Mean Temperature 64 °F -  
Max Temperature 76 °F 72 °F 87 °F (1980)
Min Temperature 52 °F 52 °F 29 °F (1965)
Degree Days  
Heating Degree Days 2    
Growing Degree Days 14 (Base 50)    
Moisture  
Dew Point 47 °F    
Average Humidity 58    
Maximum Humidity 94    
Minimum Humidity 32    
Precipitation  
Precipitation 0.00 in - - ()
Sea Level Pressure  
Sea Level Pressure 30.14 in    
Wind  
Wind Speed 7 mph (NNE)    
Max Wind Speed 10 mph    
Max Gust Speed -    
Visibility 10 miles    
Events      
Averages and records for this station are not official NWS values.
T = Trace of Precipitation, MM = Missing Value Source: NWS Daily Summary

Daily Weather History Graph

Daily Weather History Graph

Search for Another Location

Airport:

Trip Planner

Search our weather history database for the weather conditions in past years. The results will help you decide how hot, cold, wet, or windy it might be!

Date:

Astronomy

Mar. 20, 2014 Rise Set
Actual Time 7:28 AM CDT 7:36 PM CDT
Civil Twilight 7:04 AM CDT 7:59 PM CDT
Nautical Twilight 6:37 AM CDT 8:27 PM CDT
Astronomical Twilight 6:09 AM CDT 8:55 PM CDT
Moon 11:37 PM CDT (3/20) 9:53 AM CDT (3/20)
Length of Visible Light 12h 55m
Length of Day
12h 07m
Waning Gibbous, 84% of the Moon is Illuminated
Mar 20
Waning Gibbous
Mar 23
Last Quarter
Mar 30
New
Apr 7
First Quarter
Apr 15
Full

Hourly Weather History & Observations

Time (CDT) Temp. Dew Point Humidity Pressure Visibility Wind Dir Wind Speed Gust Speed Precip Events Conditions
12:15 AM 59.9 °F 45.7 °F 59% 30.16 in 10.0 mi North 9.2 mph - N/A   Overcast
12:35 AM 58.3 °F 46.0 °F 64% 30.16 in 10.0 mi NNW 8.1 mph - N/A   Mostly Cloudy
1:15 AM 57.4 °F 46.8 °F 68% 30.16 in 10.0 mi NNW 9.2 mph - N/A   Mostly Cloudy
1:35 AM 56.7 °F 46.0 °F 68% 30.16 in 10.0 mi NNW 9.2 mph - N/A   Mostly Cloudy
1:55 AM 57.4 °F 46.0 °F 66% 30.16 in 10.0 mi NNW 8.1 mph - N/A   Mostly Cloudy
2:15 AM 57.7 °F 45.7 °F 64% 30.16 in 10.0 mi North 8.1 mph - N/A   Overcast
2:35 AM 57.6 °F 45.7 °F 65% 30.16 in 10.0 mi North 8.1 mph - N/A   Overcast
2:55 AM 57.2 °F 45.7 °F 65% 30.16 in 10.0 mi North 8.1 mph - N/A   Overcast
3:15 AM 57.2 °F 45.7 °F 65% 30.15 in 10.0 mi North 9.2 mph - N/A   Overcast
3:35 AM 57.4 °F 45.0 °F 63% 30.15 in 10.0 mi North 9.2 mph - N/A   Overcast
3:55 AM 57.2 °F 45.3 °F 65% 30.15 in 10.0 mi North 10.4 mph - N/A   Overcast
4:15 AM 57.0 °F 44.6 °F 63% 30.14 in 10.0 mi North 8.1 mph - N/A   Mostly Cloudy
4:35 AM 56.8 °F 45.5 °F 66% 30.15 in 10.0 mi North 8.1 mph - N/A   Overcast
4:55 AM 56.5 °F 45.9 °F 68% 30.16 in 10.0 mi NNW 5.8 mph - N/A   Overcast
5:15 AM 56.3 °F 45.9 °F 68% 30.15 in 10.0 mi North 6.9 mph - N/A   Mostly Cloudy
5:35 AM 55.6 °F 44.8 °F 67% 30.16 in 10.0 mi North 8.1 mph - N/A   Mostly Cloudy
5:55 AM 56.5 °F 44.8 °F 65% 30.17 in 10.0 mi North 6.9 mph - N/A   Overcast
6:15 AM 56.3 °F 44.8 °F 65% 30.17 in 10.0 mi North 8.1 mph - N/A   Overcast
6:35 AM 56.5 °F 44.6 °F 64% 30.18 in 10.0 mi North 4.6 mph - N/A   Overcast
6:55 AM 56.3 °F 44.6 °F 65% 30.19 in 10.0 mi North 4.6 mph - N/A   Overcast
7:15 AM 55.8 °F 44.8 °F 67% 30.19 in 10.0 mi North 3.5 mph - N/A   Overcast
7:35 AM 53.6 °F 44.8 °F 72% 30.19 in 10.0 mi North 4.6 mph - N/A   Mostly Cloudy
7:55 AM 52.2 °F 45.1 °F 77% 30.19 in 10.0 mi North 5.8 mph - N/A   Scattered Clouds
8:15 AM 53.6 °F 46.0 °F 76% 30.20 in 10.0 mi North 4.6 mph - N/A   Clear
8:35 AM 55.6 °F 46.4 °F 71% 30.21 in 10.0 mi North 4.6 mph - N/A   Clear
8:55 AM 57.6 °F 45.5 °F 64% 30.21 in 10.0 mi North 8.1 mph - N/A   Clear
9:15 AM 59.0 °F 45.1 °F 60% 30.21 in 10.0 mi North 9.2 mph - N/A   Clear
9:35 AM 60.3 °F 44.8 °F 57% 30.21 in 10.0 mi North 8.1 mph - N/A   Clear
9:55 AM 61.9 °F 44.4 °F 53% 30.22 in 10.0 mi NNE 8.1 mph - N/A   Clear
10:15 AM 62.8 °F 43.7 °F 50% 30.22 in 10.0 mi NNE 5.8 mph - N/A   Clear
10:35 AM 63.7 °F 44.2 °F 49% 30.22 in 10.0 mi NNE 9.2 mph - N/A   Clear
10:55 AM 64.9 °F 45.0 °F 48% 30.22 in 10.0 mi NE 9.2 mph - N/A   Clear
11:15 AM 65.3 °F 44.4 °F 47% 30.22 in 10.0 mi NE 5.8 mph - N/A   Clear
11:35 AM 66.4 °F 45.1 °F 46% 30.21 in 10.0 mi NE 5.8 mph - N/A   Clear
11:55 AM 67.6 °F 45.5 °F 45% 30.20 in 10.0 mi East 3.5 mph - N/A   Clear
12:15 PM 68.4 °F 44.8 °F 43% 30.20 in 10.0 mi ENE 4.6 mph - N/A   Clear
12:35 PM 69.4 °F 44.4 °F 41% 30.19 in 10.0 mi NW 3.5 mph - N/A   Clear
12:55 PM 70.9 °F 43.2 °F 37% 30.18 in 10.0 mi East 4.6 mph - N/A   Clear
1:15 PM 71.4 °F 44.1 °F 37% 30.18 in 10.0 mi North 3.5 mph - N/A   Clear
1:35 PM 72.0 °F 44.1 °F 37% 30.16 in 10.0 mi ENE 3.5 mph - N/A   Clear
1:55 PM 72.7 °F 44.4 °F 36% 30.16 in 10.0 mi NW 3.5 mph - N/A   Clear
2:15 PM 73.0 °F 45.3 °F 37% 30.15 in 10.0 mi West 3.5 mph - N/A   Clear
2:35 PM 73.6 °F 45.7 °F 37% 30.14 in 10.0 mi NE 3.5 mph - N/A   Clear
2:55 PM 73.9 °F 45.3 °F 36% 30.13 in 10.0 mi Calm Calm - N/A   Clear
3:15 PM 75.2 °F 46.0 °F 35% 30.12 in 10.0 mi Calm Calm - N/A   Clear
3:35 PM 75.2 °F 46.6 °F 36% 30.11 in 10.0 mi WNW 3.5 mph - N/A   Clear
3:55 PM 75.0 °F 44.6 °F 34% 30.10 in 10.0 mi NNW 3.5 mph - N/A   Clear
4:15 PM 75.2 °F 45.5 °F 35% 30.09 in 10.0 mi NE 4.6 mph - N/A   Clear
4:35 PM 75.4 °F 43.9 °F 32% 30.08 in 10.0 mi Calm Calm - N/A   Clear
4:55 PM 75.0 °F 44.2 °F 33% 30.08 in 10.0 mi NNW 3.5 mph - N/A   Clear
5:15 PM 75.9 °F 44.2 °F 32% 30.08 in 10.0 mi Calm Calm - N/A   Clear
5:35 PM 75.2 °F 43.2 °F 32% 30.07 in 10.0 mi Calm Calm - N/A   Clear
5:55 PM 75.4 °F 43.5 °F 32% 30.07 in 10.0 mi Calm Calm - N/A   Clear
6:15 PM 74.8 °F 44.2 °F 33% 30.07 in 10.0 mi Calm Calm - N/A   Clear
6:35 PM 73.8 °F 46.0 °F 37% 30.07 in 10.0 mi Calm Calm - N/A   Clear
6:55 PM 71.6 °F 48.0 °F 43% 30.06 in 10.0 mi Calm Calm - N/A   Clear
7:15 PM 68.9 °F 53.4 °F 58% 30.06 in 10.0 mi SSE 9.2 mph - N/A   Clear
7:35 PM 66.7 °F 53.6 °F 63% 30.07 in 10.0 mi SSE 9.2 mph - N/A   Clear
7:55 PM 65.1 °F 53.4 °F 66% 30.07 in 10.0 mi SSE 6.9 mph - N/A   Clear
8:15 PM 63.9 °F 53.1 °F 68% 30.08 in 10.0 mi SSE 8.1 mph - N/A   Clear
8:35 PM 62.6 °F 53.1 °F 71% 30.08 in 10.0 mi South 8.1 mph - N/A   Clear
8:55 PM 61.7 °F 52.7 °F 72% 30.08 in 10.0 mi SSE 6.9 mph - N/A   Clear
9:15 PM 60.8 °F 52.2 °F 73% 30.08 in 10.0 mi SSE 8.1 mph - N/A   Clear
9:35 PM 59.9 °F 53.8 °F 80% 30.09 in 10.0 mi SSE 8.1 mph - N/A   Clear
9:55 PM 59.0 °F 54.7 °F 86% 30.09 in 10.0 mi SSE 6.9 mph - N/A   Clear
10:15 PM 56.8 °F 53.6 °F 89% 30.10 in 10.0 mi SE 4.6 mph - N/A   Clear
10:35 PM 56.3 °F 53.6 °F 91% 30.09 in 10.0 mi SE 5.8 mph - N/A   Clear
10:55 PM 54.9 °F 52.7 °F 92% 30.09 in 10.0 mi SE 5.8 mph - N/A   Clear
11:15 PM 55.4 °F 53.2 °F 92% 30.09 in 10.0 mi SSE 4.6 mph - N/A   Clear
11:35 PM 55.4 °F 53.6 °F 94% 30.09 in 10.0 mi SSE 4.6 mph - N/A   Clear
11:55 PM 54.9 °F 53.2 °F 94% 30.09 in 10.0 mi SSE 3.5 mph - N/A   Clear